createdAt,value
2023-04-20T00:00:51.927Z,1.90
2023-04-20T00:03:21.539Z,2.03
2023-04-20T00:05:50.476Z,1.43
2023-04-20T00:08:18.564Z,1.80
2023-04-20T00:10:48.206Z,1.93
2023-04-20T00:13:15.995Z,1.53
2023-04-20T00:15:43.871Z,1.73
2023-04-20T00:18:11.917Z,1.27
2023-04-20T00:20:40.105Z,1.70
2023-04-20T00:23:08.398Z,1.70
2023-04-20T00:25:36.465Z,1.50
2023-04-20T00:28:06.068Z,1.60
2023-04-20T00:30:34.023Z,1.60
2023-04-20T00:33:01.860Z,1.60
2023-04-20T00:35:29.830Z,1.33
2023-04-20T00:37:57.563Z,1.40
2023-04-20T00:40:25.380Z,1.70
2023-04-20T00:42:53.197Z,1.67
2023-04-20T00:45:22.797Z,1.53
2023-04-20T00:47:51.882Z,1.30
2023-04-20T00:50:19.889Z,1.60
2023-04-20T00:52:48.760Z,1.63
2023-04-20T00:55:16.603Z,1.70
2023-04-20T00:57:45.437Z,1.50
2023-04-20T01:00:14.122Z,1.73
2023-04-20T01:02:43.363Z,1.63
2023-04-20T01:05:11.648Z,1.30
2023-04-20T01:07:39.495Z,1.73
2023-04-20T01:10:09.050Z,1.43
2023-04-20T01:12:37.314Z,1.30
2023-04-20T01:15:06.840Z,1.60
2023-04-20T01:17:36.754Z,1.43
2023-04-20T01:20:08.994Z,1.50
2023-04-20T01:22:47.347Z,1.30
2023-04-20T01:25:15.945Z,1.53
2023-04-20T01:27:44.347Z,1.30
2023-04-20T01:30:13.109Z,1.60
2023-04-20T01:32:41.345Z,1.47
2023-04-20T01:35:10.506Z,1.30
2023-04-20T01:37:38.394Z,1.70
2023-04-20T01:40:10.534Z,1.23
2023-04-20T01:42:38.608Z,1.53
2023-04-20T01:45:07.152Z,1.70
2023-04-20T01:47:36.467Z,1.83
2023-04-20T01:50:04.560Z,1.37
2023-04-20T01:52:32.398Z,1.60
2023-04-20T01:55:00.202Z,1.10
2023-04-20T01:57:29.411Z,1.43
2023-04-20T01:59:57.246Z,1.47
2023-04-20T02:02:25.166Z,1.30
2023-04-20T02:04:53.410Z,1.37
2023-04-20T02:07:21.360Z,1.57
2023-04-20T02:09:49.237Z,1.37
2023-04-20T02:12:17.015Z,1.47
2023-04-20T02:14:46.213Z,1.33
2023-04-20T02:17:14.350Z,1.27
2023-04-20T02:19:42.173Z,1.50
2023-04-20T02:22:10.003Z,1.47
2023-04-20T02:24:37.885Z,1.33
2023-04-20T02:27:06.084Z,1.27
2023-04-20T02:29:33.933Z,1.40
2023-04-20T02:32:03.298Z,1.50
2023-04-20T02:34:31.332Z,1.67
2023-04-20T02:36:59.108Z,1.60
2023-04-20T02:39:26.906Z,1.50
2023-04-20T02:41:54.715Z,1.77
2023-04-20T02:44:22.706Z,1.43
2023-04-20T02:46:50.597Z,1.70
2023-04-20T02:49:19.815Z,1.50
2023-04-20T02:51:47.739Z,1.60
2023-04-20T02:54:15.544Z,1.50
2023-04-20T02:56:43.305Z,1.70
2023-04-20T02:59:11.770Z,2.10
2023-04-20T03:01:39.581Z,1.83
2023-04-20T03:04:07.629Z,1.77
2023-04-20T03:06:38.811Z,1.73
2023-04-20T03:09:07.561Z,1.80
2023-04-20T03:11:35.542Z,2.03
2023-04-20T03:14:03.507Z,2.47
2023-04-20T03:16:31.327Z,1.80
2023-04-20T03:18:59.449Z,2.03
2023-04-20T03:21:27.345Z,2.00
2023-04-20T03:23:56.488Z,1.83
2023-04-20T03:26:24.316Z,2.03
2023-04-20T03:28:52.512Z,2.23
2023-04-20T03:31:20.346Z,1.83
2023-04-20T03:33:48.071Z,2.20
2023-04-20T03:36:15.920Z,1.80
2023-04-20T03:38:43.818Z,1.73
2023-04-20T03:41:13.158Z,1.90
2023-04-20T03:43:41.734Z,1.67
2023-04-20T03:46:09.664Z,1.63
2023-04-20T03:48:37.563Z,2.07
2023-04-20T03:51:06.132Z,1.70
2023-04-20T03:53:33.947Z,1.70
2023-04-20T03:56:01.940Z,1.70
2023-04-20T03:58:31.240Z,1.70
2023-04-20T04:01:03.238Z,1.57
2023-04-20T04:03:31.539Z,1.93
2023-04-20T04:05:59.489Z,1.80
2023-04-20T04:08:27.364Z,1.77
2023-04-20T04:10:55.317Z,1.87
2023-04-20T04:13:23.257Z,1.90
2023-04-20T04:15:52.421Z,1.50
2023-04-20T04:18:21.465Z,1.97
2023-04-20T04:20:49.374Z,1.77
2023-04-20T04:23:17.209Z,1.80
2023-04-20T04:25:46.126Z,1.80
2023-04-20T04:28:14.774Z,1.47
2023-04-20T04:30:42.729Z,1.73
2023-04-20T04:33:12.854Z,1.37
2023-04-20T04:35:41.664Z,1.30
2023-04-20T04:38:09.493Z,1.40
2023-04-20T04:40:38.153Z,1.53
2023-04-20T04:43:07.739Z,1.37
2023-04-20T04:45:38.305Z,1.10
2023-04-20T04:48:08.741Z,1.20
2023-04-20T04:50:41.423Z,1.20
2023-04-20T04:53:09.299Z,1.63
2023-04-20T04:55:37.381Z,1.50
2023-04-20T04:58:05.448Z,1.30
2023-04-20T05:00:37.310Z,1.50
2023-04-20T05:03:05.444Z,1.00
2023-04-20T05:05:33.401Z,1.10
2023-04-20T05:08:02.589Z,1.30
2023-04-20T05:10:30.473Z,1.27
2023-04-20T05:12:59.600Z,1.03
2023-04-20T05:15:27.856Z,1.20
2023-04-20T05:17:55.722Z,1.40
2023-04-20T05:20:23.619Z,0.80
2023-04-20T05:22:51.434Z,1.00
2023-04-20T05:25:21.258Z,1.07
2023-04-20T05:27:49.079Z,0.90
2023-04-20T05:30:21.500Z,1.03
2023-04-20T05:32:51.959Z,1.00
2023-04-20T05:35:20.326Z,1.10
2023-04-20T05:37:48.509Z,0.90
2023-04-20T05:40:16.385Z,1.03
2023-04-20T05:42:45.570Z,1.07
2023-04-20T05:45:13.622Z,1.17
2023-04-20T05:47:42.003Z,1.10
2023-04-20T05:50:10.952Z,1.00
2023-04-20T05:52:38.771Z,1.03
2023-04-20T05:55:07.364Z,1.10
2023-04-20T05:57:36.970Z,1.40
2023-04-20T06:00:08.676Z,1.20
2023-04-20T06:02:36.943Z,1.43
2023-04-20T06:05:05.107Z,1.03
2023-04-20T06:07:33.007Z,1.10
2023-04-20T06:10:01.964Z,1.30
2023-04-20T06:12:30.125Z,1.53
2023-04-20T06:14:57.969Z,1.33
2023-04-20T06:17:27.205Z,1.20
2023-04-20T06:19:55.338Z,1.20
2023-04-20T06:22:24.473Z,1.40
2023-04-20T06:24:52.314Z,1.40
2023-04-20T06:27:20.533Z,1.20
2023-04-20T06:29:48.275Z,1.43
2023-04-20T06:32:16.078Z,1.13
2023-04-20T06:34:45.285Z,1.30
2023-04-20T06:37:13.319Z,1.23
2023-04-20T06:39:41.283Z,1.30
2023-04-20T06:42:09.260Z,1.20
2023-04-20T06:44:37.095Z,1.43
2023-04-20T06:47:05.122Z,1.20
2023-04-20T06:49:33.095Z,1.40
2023-04-20T06:52:02.244Z,1.30
2023-04-20T06:54:30.181Z,1.47
2023-04-20T06:56:57.965Z,1.27
2023-04-20T06:59:25.942Z,1.30
2023-04-20T07:01:53.740Z,1.53
2023-04-20T07:04:21.704Z,1.30
2023-04-20T07:06:53.830Z,1.30
2023-04-20T07:09:24.858Z,1.63
2023-04-20T07:11:52.641Z,1.70
2023-04-20T07:14:20.375Z,1.50
2023-04-20T07:16:48.441Z,1.77
2023-04-20T07:19:16.578Z,1.60
2023-04-20T07:21:44.544Z,1.50
2023-04-20T07:24:12.455Z,1.90
2023-04-20T07:26:41.652Z,1.60
2023-04-20T07:29:09.439Z,1.53
2023-04-20T07:31:37.234Z,1.67
2023-04-20T07:34:05.094Z,1.47
2023-04-20T07:36:33.529Z,1.70
2023-04-20T07:39:01.350Z,1.87
2023-04-20T07:41:29.164Z,1.87
2023-04-20T07:43:58.292Z,1.47
2023-04-20T07:46:26.755Z,1.47
2023-04-20T07:48:54.524Z,1.60
2023-04-20T07:51:22.571Z,1.73
2023-04-20T07:53:50.488Z,1.50
2023-04-20T07:56:18.396Z,1.60
2023-04-20T07:58:46.263Z,1.80
2023-04-20T08:01:15.944Z,1.57
2023-04-20T08:03:43.860Z,1.77
2023-04-20T08:06:11.988Z,1.60
2023-04-20T08:08:39.989Z,1.73
2023-04-20T08:11:08.744Z,1.50
2023-04-20T08:13:37.745Z,1.73
2023-04-20T08:16:08.712Z,1.77
2023-04-20T08:18:38.045Z,1.83
2023-04-20T08:21:05.869Z,2.17
2023-04-20T08:23:33.656Z,1.77
2023-04-20T08:26:01.575Z,1.53
2023-04-20T08:28:33.299Z,1.80
2023-04-20T08:31:02.045Z,2.00
2023-04-20T08:33:30.194Z,1.53
2023-04-20T08:35:59.336Z,1.60
2023-04-20T08:38:33.746Z,1.87
2023-04-20T08:41:02.485Z,1.60
2023-04-20T08:43:30.785Z,1.77
2023-04-20T08:46:00.224Z,1.63
2023-04-20T08:48:35.141Z,1.83
2023-04-20T08:51:04.876Z,2.17
2023-04-20T08:53:33.577Z,1.67
2023-04-20T08:56:01.462Z,1.67
2023-04-20T08:58:32.061Z,2.00
2023-04-20T09:01:00.752Z,1.70
2023-04-20T09:03:35.897Z,2.03
2023-04-20T09:06:06.339Z,2.10
2023-04-20T09:08:38.611Z,2.20
2023-04-20T09:11:06.773Z,2.00
2023-04-20T09:13:35.235Z,1.83
2023-04-20T09:16:13.646Z,1.83
2023-04-20T09:18:41.517Z,1.70
2023-04-20T09:21:11.614Z,1.77
2023-04-20T09:23:39.599Z,1.93
2023-04-20T09:26:07.347Z,1.93
2023-04-20T09:28:39.971Z,2.50
2023-04-20T09:31:18.215Z,2.10
2023-04-20T09:33:46.104Z,2.23
2023-04-20T09:36:17.687Z,2.00
2023-04-20T09:38:45.589Z,2.20
2023-04-20T09:41:15.373Z,2.30
2023-04-20T09:43:43.844Z,2.40
2023-04-20T09:46:11.698Z,2.50
2023-04-20T09:48:39.642Z,2.60
2023-04-20T09:51:08.670Z,2.40
2023-04-20T09:53:38.229Z,2.40
2023-04-20T09:56:07.683Z,2.37
2023-04-20T09:58:36.054Z,2.43
2023-04-20T10:01:03.963Z,2.03
2023-04-20T10:03:31.868Z,2.03
2023-04-20T10:05:59.714Z,2.00
2023-04-20T10:08:27.576Z,2.03
2023-04-20T10:10:56.834Z,2.00
2023-04-20T10:13:34.672Z,2.77
2023-04-20T10:16:02.520Z,2.07
2023-04-20T10:18:30.513Z,1.83
2023-04-20T10:21:07.055Z,2.03
2023-04-20T10:23:34.952Z,2.00
2023-04-20T10:26:04.522Z,2.10
2023-04-20T10:28:45.085Z,1.90
2023-04-20T10:31:15.500Z,2.10
2023-04-20T10:33:53.851Z,2.00
2023-04-20T10:36:26.598Z,1.80
2023-04-20T10:38:54.806Z,2.03
2023-04-20T10:41:24.409Z,2.03
2023-04-20T10:43:52.196Z,2.10
2023-04-20T10:46:21.637Z,2.00
2023-04-20T10:48:57.299Z,2.10
2023-04-20T10:51:26.241Z,2.10
2023-04-20T10:54:01.844Z,2.00
2023-04-20T10:56:38.075Z,2.00
2023-04-20T10:59:09.133Z,2.30
2023-04-20T11:01:37.150Z,2.30
2023-04-20T11:04:05.362Z,2.20
2023-04-20T11:06:33.298Z,2.40
2023-04-20T11:09:01.222Z,2.13
2023-04-20T11:11:30.567Z,2.03
2023-04-20T11:14:08.561Z,2.20
2023-04-20T11:16:48.028Z,2.43
2023-04-20T11:19:24.291Z,2.50
2023-04-20T11:21:52.124Z,2.50
2023-04-20T11:24:20.943Z,2.53
2023-04-20T11:26:51.141Z,2.73
2023-04-20T11:29:30.222Z,2.57
2023-04-20T11:31:58.645Z,2.20
2023-04-20T11:34:26.938Z,2.77
2023-04-20T11:36:56.781Z,2.47
2023-04-20T11:39:25.323Z,2.80
2023-04-20T11:41:56.658Z,2.30
2023-04-20T11:44:25.929Z,2.57
2023-04-20T11:46:54.847Z,2.80
2023-04-20T11:49:22.811Z,2.33
2023-04-20T11:51:51.232Z,2.53
2023-04-20T11:54:20.138Z,3.10
2023-04-20T11:56:47.988Z,2.47
2023-04-20T11:59:20.155Z,2.20
2023-04-20T12:01:48.871Z,2.63
2023-04-20T12:04:17.117Z,2.77
2023-04-20T12:06:45.609Z,2.57
2023-04-20T12:09:14.061Z,2.70
2023-04-20T12:11:41.892Z,2.57
2023-04-20T12:14:09.645Z,2.97
2023-04-20T12:16:38.848Z,2.60
2023-04-20T12:19:06.554Z,2.57
2023-04-20T12:21:34.301Z,2.50
2023-04-20T12:24:02.165Z,2.70
2023-04-20T12:26:37.984Z,2.77
2023-04-20T12:29:07.229Z,3.17
2023-04-20T12:31:35.696Z,2.50
2023-04-20T12:34:05.139Z,2.80
2023-04-20T12:36:35.222Z,2.70
2023-04-20T12:39:04.057Z,2.80
2023-04-20T12:41:33.051Z,2.43
2023-04-20T12:44:03.468Z,2.37
2023-04-20T12:46:33.242Z,2.60
2023-04-20T12:49:01.080Z,2.67
2023-04-20T12:51:30.235Z,2.97
2023-04-20T12:53:58.051Z,2.30
2023-04-20T12:56:28.599Z,2.77
2023-04-20T12:58:56.420Z,2.77
2023-04-20T13:01:24.322Z,3.27
2023-04-20T13:03:52.642Z,2.60
2023-04-20T13:06:20.758Z,3.00
2023-04-20T13:08:50.969Z,2.67
2023-04-20T13:11:18.725Z,2.30
2023-04-20T13:13:46.530Z,2.80
2023-04-20T13:16:14.433Z,2.60
2023-04-20T13:18:42.330Z,2.73
2023-04-20T13:21:10.315Z,3.20
2023-04-20T13:23:39.971Z,3.30
2023-04-20T13:26:09.915Z,2.93
2023-04-20T13:28:37.931Z,3.07
2023-04-20T13:31:06.006Z,2.67
2023-04-20T13:33:33.933Z,3.07
2023-04-20T13:36:01.804Z,3.03
2023-04-20T13:38:29.592Z,3.07
2023-04-20T13:40:57.439Z,3.03
2023-04-20T13:43:26.768Z,3.27
2023-04-20T13:45:54.656Z,2.70
2023-04-20T13:48:22.919Z,2.77
2023-04-20T13:50:51.239Z,2.70
2023-04-20T13:53:18.998Z,2.93
2023-04-20T13:55:46.781Z,3.10
2023-04-20T13:58:14.538Z,3.23
2023-04-20T14:00:43.702Z,2.73
2023-04-20T14:03:12.138Z,3.00
2023-04-20T14:05:40.447Z,2.83
2023-04-20T14:08:08.175Z,3.00
2023-04-20T14:10:36.047Z,2.90
2023-04-20T14:13:03.818Z,2.60
2023-04-20T14:15:31.728Z,2.80
2023-04-20T14:18:01.215Z,2.83
2023-04-20T14:20:29.102Z,2.63
2023-04-20T14:22:56.902Z,3.00
2023-04-20T14:25:24.935Z,3.17
2023-04-20T14:27:52.817Z,2.43
2023-04-20T14:30:20.780Z,2.67
2023-04-20T14:32:55.755Z,2.80
2023-04-20T14:35:26.097Z,2.70
2023-04-20T14:37:54.214Z,2.83
2023-04-20T14:40:22.182Z,2.63
2023-04-20T14:42:50.139Z,3.23
2023-04-20T14:45:17.993Z,3.03
2023-04-20T14:47:45.843Z,3.20
2023-04-20T14:50:13.730Z,3.27
2023-04-20T14:52:42.887Z,3.27
2023-04-20T14:55:10.983Z,2.90
2023-04-20T14:57:39.015Z,3.30
2023-04-20T15:00:10.487Z,2.87
2023-04-20T15:02:38.593Z,2.90
2023-04-20T15:05:10.314Z,2.40
2023-04-20T15:07:38.964Z,2.93
2023-04-20T15:10:09.338Z,2.90
2023-04-20T15:12:37.119Z,2.50
2023-04-20T15:15:05.572Z,2.70
2023-04-20T15:17:33.380Z,3.00
2023-04-20T15:20:01.152Z,2.80
2023-04-20T15:22:28.989Z,2.80
2023-04-20T15:24:56.768Z,2.87
2023-04-20T15:27:25.898Z,2.60
2023-04-20T15:29:53.653Z,2.87
2023-04-20T15:32:21.609Z,2.63
2023-04-20T15:34:49.427Z,2.80
2023-04-20T15:37:17.424Z,2.97
2023-04-20T15:39:45.516Z,2.60
2023-04-20T15:42:13.374Z,2.50
2023-04-20T15:44:42.510Z,2.93
2023-04-20T15:47:10.370Z,2.70
2023-04-20T15:49:40.765Z,2.47
2023-04-20T15:52:09.126Z,3.17
2023-04-20T15:54:37.022Z,3.10
2023-04-20T15:57:04.897Z,2.93
2023-04-20T15:59:32.906Z,2.83
2023-04-20T16:02:02.124Z,2.67
2023-04-20T16:04:30.108Z,2.83
2023-04-20T16:06:57.984Z,3.17
2023-04-20T16:09:26.074Z,3.10
2023-04-20T16:11:53.866Z,2.93
2023-04-20T16:14:21.691Z,2.90
2023-04-20T16:16:49.537Z,2.67
2023-04-20T16:19:18.734Z,2.90
2023-04-20T16:21:46.543Z,3.13
2023-04-20T16:24:14.357Z,3.50
2023-04-20T16:26:42.172Z,2.73
2023-04-20T16:29:10.194Z,3.07
2023-04-20T16:31:38.043Z,3.10
2023-04-20T16:34:05.963Z,3.20
2023-04-20T16:36:36.272Z,3.53
2023-04-20T16:39:06.532Z,3.37
2023-04-20T16:41:34.388Z,2.97
2023-04-20T16:44:02.852Z,3.43
2023-04-20T16:46:31.899Z,3.07
2023-04-20T16:48:59.845Z,3.30
2023-04-20T16:51:29.257Z,2.97
2023-04-20T16:53:59.967Z,2.70
2023-04-20T16:56:27.762Z,3.43
2023-04-20T16:58:55.601Z,3.17
2023-04-20T17:01:23.439Z,3.60
2023-04-20T17:03:51.430Z,3.23
2023-04-20T17:06:19.475Z,3.40
2023-04-20T17:08:47.334Z,3.37
2023-04-20T17:11:18.505Z,3.67
2023-04-20T17:13:46.571Z,2.83
2023-04-20T17:16:14.445Z,3.80
2023-04-20T17:18:42.380Z,3.13
2023-04-20T17:21:10.232Z,3.20
2023-04-20T17:23:38.104Z,3.37
2023-04-20T17:26:06.965Z,2.90
2023-04-20T17:28:36.104Z,3.20
2023-04-20T17:31:03.899Z,2.90
2023-04-20T17:33:31.752Z,3.33
2023-04-20T17:36:00.277Z,3.30
2023-04-20T17:38:34.157Z,3.70
2023-04-20T17:41:01.943Z,3.87
2023-04-20T17:43:29.808Z,3.40
2023-04-20T17:45:59.126Z,3.20
2023-04-20T17:48:27.087Z,3.37
2023-04-20T17:50:55.912Z,3.33
2023-04-20T17:53:25.432Z,3.10
2023-04-20T17:55:53.225Z,3.37
2023-04-20T17:58:21.168Z,3.30
2023-04-20T18:00:49.050Z,3.17
2023-04-20T18:03:20.062Z,3.30
2023-04-20T18:05:48.304Z,3.53
2023-04-20T18:08:17.881Z,3.33
2023-04-20T18:10:45.726Z,3.53
2023-04-20T18:13:13.919Z,3.73
2023-04-20T18:15:41.834Z,3.80
2023-04-20T18:18:09.670Z,3.17
2023-04-20T18:20:38.875Z,3.40
2023-04-20T18:23:06.970Z,3.63
2023-04-20T18:25:34.913Z,3.33
2023-04-20T18:28:02.736Z,3.50
2023-04-20T18:30:30.493Z,3.50
2023-04-20T18:32:58.702Z,3.20
2023-04-20T18:35:26.834Z,3.37
2023-04-20T18:37:55.959Z,3.60
2023-04-20T18:40:23.759Z,3.60
2023-04-20T18:42:51.529Z,3.60
2023-04-20T18:45:21.277Z,3.67
2023-04-20T18:47:49.732Z,3.13
2023-04-20T18:50:17.913Z,3.27
2023-04-20T18:52:45.819Z,3.53
2023-04-20T18:55:15.103Z,3.40
2023-04-20T18:57:42.873Z,4.03
2023-04-20T19:00:11.828Z,4.63
2023-04-20T19:02:40.864Z,5.90
2023-04-20T19:05:09.453Z,4.10
2023-04-20T19:07:37.203Z,4.07
2023-04-20T19:10:05.755Z,3.87
2023-04-20T19:12:34.979Z,4.00
2023-04-20T19:15:02.752Z,4.40
2023-04-20T19:17:30.945Z,4.90
2023-04-20T19:19:58.816Z,4.13
2023-04-20T19:22:26.583Z,3.80
2023-04-20T19:24:54.465Z,3.57
2023-04-20T19:27:22.281Z,3.90
2023-04-20T19:29:51.482Z,4.07
2023-04-20T19:32:19.488Z,4.03
2023-04-20T19:34:47.346Z,4.13
2023-04-20T19:37:15.307Z,3.60
2023-04-20T19:39:43.063Z,3.70
2023-04-20T19:42:10.852Z,3.70
2023-04-20T19:44:38.711Z,3.87
2023-04-20T19:47:07.914Z,4.40
2023-04-20T19:49:35.823Z,4.30
2023-04-20T19:52:03.772Z,4.07
2023-04-20T19:54:31.671Z,4.03
2023-04-20T19:56:59.509Z,4.10
2023-04-20T19:59:28.437Z,4.20
2023-04-20T20:01:56.332Z,4.20
2023-04-20T20:04:25.903Z,3.90
2023-04-20T20:06:53.781Z,4.30
2023-04-20T20:09:24.005Z,4.43
2023-04-20T20:11:52.198Z,4.13
2023-04-20T20:14:20.647Z,4.20
2023-04-20T20:16:48.649Z,4.17
2023-04-20T20:19:18.199Z,4.20
2023-04-20T20:21:47.624Z,3.90
2023-04-20T20:24:19.970Z,4.23
2023-04-20T20:26:48.216Z,4.40
2023-04-20T20:29:16.465Z,4.00
2023-04-20T20:31:44.432Z,4.30
2023-04-20T20:34:12.296Z,4.10
2023-04-20T20:36:42.531Z,3.90
2023-04-20T20:39:12.693Z,4.10
2023-04-20T20:41:42.838Z,4.20
2023-04-20T20:44:11.249Z,4.77
2023-04-20T20:46:39.588Z,4.20
2023-04-20T20:49:08.150Z,4.23
2023-04-20T20:51:35.968Z,4.23
2023-04-20T20:54:06.687Z,4.03
2023-04-20T20:56:36.980Z,4.13
2023-04-20T20:59:06.380Z,4.13
2023-04-20T21:01:37.861Z,3.70
2023-04-20T21:04:06.532Z,4.20
2023-04-20T21:06:37.128Z,3.57
2023-04-20T21:09:06.376Z,3.57
2023-04-20T21:11:37.484Z,3.80
2023-04-20T21:14:06.465Z,4.00
2023-04-20T21:16:38.269Z,3.90
2023-04-20T21:19:14.894Z,3.97
2023-04-20T21:21:45.310Z,3.73
2023-04-20T21:24:13.285Z,3.70
2023-04-20T21:26:45.216Z,4.00
2023-04-20T21:29:16.802Z,3.97
2023-04-20T21:31:46.897Z,4.23
2023-04-20T21:34:16.412Z,3.67
2023-04-20T21:36:45.203Z,4.20
2023-04-20T21:39:17.328Z,3.90
2023-04-20T21:41:47.135Z,4.10
2023-04-20T21:44:16.295Z,3.80
2023-04-20T21:46:46.770Z,4.03
2023-04-20T21:49:14.561Z,4.23
2023-04-20T21:51:46.805Z,4.20
2023-04-20T21:54:18.285Z,4.30
2023-04-20T21:56:47.571Z,4.07
2023-04-20T21:59:17.005Z,4.00
2023-04-20T22:01:46.060Z,4.70
2023-04-20T22:04:18.434Z,4.43
2023-04-20T22:06:47.028Z,4.03
2023-04-20T22:09:18.637Z,4.03
2023-04-20T22:11:51.074Z,4.10
2023-04-20T22:14:18.930Z,4.20
2023-04-20T22:16:46.844Z,4.33
2023-04-20T22:19:17.694Z,4.03
2023-04-20T22:21:46.499Z,4.10
2023-04-20T22:24:15.724Z,4.23
2023-04-20T22:26:45.621Z,4.03
2023-04-20T22:29:14.806Z,4.27
2023-04-20T22:31:44.326Z,4.27
2023-04-20T22:34:16.726Z,4.47
2023-04-20T22:36:47.616Z,4.00
2023-04-20T22:39:18.536Z,4.20
2023-04-20T22:41:46.484Z,4.03
2023-04-20T22:44:17.703Z,5.23
2023-04-20T22:46:47.053Z,4.17
2023-04-20T22:49:18.070Z,4.23
2023-04-20T22:51:46.947Z,4.50
2023-04-20T22:54:16.516Z,4.10
2023-04-20T22:56:56.990Z,4.30
2023-04-20T22:59:26.971Z,4.63
2023-04-20T23:01:57.502Z,4.13
2023-04-20T23:04:26.872Z,4.83
2023-04-20T23:06:57.695Z,5.10
2023-04-20T23:09:26.973Z,4.57
2023-04-20T23:11:54.878Z,4.70
2023-04-20T23:14:28.089Z,5.10
2023-04-20T23:16:55.948Z,4.63
2023-04-20T23:19:25.768Z,4.37
2023-04-20T23:21:56.562Z,4.93
2023-04-20T23:24:27.920Z,4.63
2023-04-20T23:26:57.570Z,4.77
2023-04-20T23:29:27.247Z,4.97
2023-04-20T23:31:57.075Z,4.83
2023-04-20T23:34:26.728Z,4.70
2023-04-20T23:36:55.608Z,4.97
2023-04-20T23:39:27.796Z,5.27
2023-04-20T23:41:56.117Z,6.00
2023-04-20T23:44:24.572Z,5.37
2023-04-20T23:46:53.812Z,5.00
2023-04-20T23:49:25.458Z,5.70
2023-04-20T23:51:56.985Z,5.50
2023-04-20T23:54:29.100Z,5.90
2023-04-20T23:56:57.507Z,6.53
2023-04-20T23:59:26.468Z,5.30
